sensor_id;sensor_type;location;lat;lon;timestamp;P1;durP1;ratioP1;P2;durP2;ratioP2
51491;SDS011;37569;50.548;8.778;2022-09-30T00:01:20;15;;;8.4;;
51491;SDS011;37569;50.548;8.778;2022-09-30T00:06:21;10.3;;;8.3;;
51491;SDS011;37569;50.548;8.778;2022-09-30T00:11:21;12;;;8.4;;
51491;SDS011;37569;50.548;8.778;2022-09-30T00:16:22;11.3;;;8.1;;
51491;SDS011;37569;50.548;8.778;2022-09-30T00:21:21;11.9;;;8.3;;
51491;SDS011;37569;50.548;8.778;2022-09-30T00:26:22;11.5;;;8.6;;
51491;SDS011;37569;50.548;8.778;2022-09-30T00:31:22;11.7;;;8.5;;
51491;SDS011;37569;50.548;8.778;2022-09-30T00:36:22;10.6;;;8.6;;
51491;SDS011;37569;50.548;8.778;2022-09-30T00:41:22;9.4;;;8.1;;
51491;SDS011;37569;50.548;8.778;2022-09-30T00:46:24;9.9;;;8.1;;
51491;SDS011;37569;50.548;8.778;2022-09-30T00:51:23;9.7;;;8.7;;
51491;SDS011;37569;50.548;8.778;2022-09-30T00:56:23;9.6;;;7.4;;
51491;SDS011;37569;50.548;8.778;2022-09-30T01:01:23;10.7;;;7.8;;
51491;SDS011;37569;50.548;8.778;2022-09-30T01:06:23;11.1;;;8.4;;
51491;SDS011;37569;50.548;8.778;2022-09-30T01:11:23;10.6;;;8.6;;
51491;SDS011;37569;50.548;8.778;2022-09-30T01:16:26;36.5;;;10;;
51491;SDS011;37569;50.548;8.778;2022-09-30T01:21:32;15.3;;;8.7;;
51491;SDS011;37569;50.548;8.778;2022-09-30T01:26:29;24.3;;;9;;
51491;SDS011;37569;50.548;8.778;2022-09-30T01:31:27;11.7;;;7.9;;
51491;SDS011;37569;50.548;8.778;2022-09-30T01:36:27;8.8;;;7.3;;
51491;SDS011;37569;50.548;8.778;2022-09-30T01:41:24;8.4;;;7.1;;
51491;SDS011;37569;50.548;8.778;2022-09-30T01:46:26;7.6;;;6.8;;
51491;SDS011;37569;50.548;8.778;2022-09-30T01:51:27;7.3;;;6.5;;
51491;SDS011;37569;50.548;8.778;2022-09-30T01:56:26;8.7;;;7;;
51491;SDS011;37569;50.548;8.778;2022-09-30T02:01:26;7.4;;;6.6;;
51491;SDS011;37569;50.548;8.778;2022-09-30T02:06:25;9.6;;;8;;
51491;SDS011;37569;50.548;8.778;2022-09-30T02:11:25;8.6;;;7.5;;
51491;SDS011;37569;50.548;8.778;2022-09-30T02:16:26;10.3;;;7.5;;
51491;SDS011;37569;50.548;8.778;2022-09-30T02:21:26;8.8;;;7.5;;
51491;SDS011;37569;50.548;8.778;2022-09-30T02:26:27;8.9;;;7.6;;
51491;SDS011;37569;50.548;8.778;2022-09-30T02:31:25;8.6;;;7.5;;
51491;SDS011;37569;50.548;8.778;2022-09-30T02:36:27;8.4;;;6.9;;
51491;SDS011;37569;50.548;8.778;2022-09-30T02:41:25;10.1;;;7.3;;
51491;SDS011;37569;50.548;8.778;2022-09-30T02:46:27;10;;;7.9;;
51491;SDS011;37569;50.548;8.778;2022-09-30T02:51:27;8.5;;;7.6;;
51491;SDS011;37569;50.548;8.778;2022-09-30T02:56:27;8.4;;;7.3;;
51491;SDS011;37569;50.548;8.778;2022-09-30T03:01:26;8.9;;;6.8;;
51491;SDS011;37569;50.548;8.778;2022-09-30T03:06:26;11;;;8;;
51491;SDS011;37569;50.548;8.778;2022-09-30T03:11:27;9.6;;;7.4;;
51491;SDS011;37569;50.548;8.778;2022-09-30T03:16:29;8.9;;;7.5;;
51491;SDS011;37569;50.548;8.778;2022-09-30T03:21:31;12.9;;;7.3;;
51491;SDS011;37569;50.548;8.778;2022-09-30T03:26:29;8.3;;;6.7;;
51491;SDS011;37569;50.548;8.778;2022-09-30T03:31:29;13.2;;;7.3;;
51491;SDS011;37569;50.548;8.778;2022-09-30T03:36:29;9.1;;;7.5;;
51491;SDS011;37569;50.548;8.778;2022-09-30T03:41:29;14.9;;;7.8;;
51491;SDS011;37569;50.548;8.778;2022-09-30T03:46:29;28.7;;;8.1;;
51491;SDS011;37569;50.548;8.778;2022-09-30T03:51:27;29.7;;;8.2;;
51491;SDS011;37569;50.548;8.778;2022-09-30T03:56:28;21.8;;;7.6;;
51491;SDS011;37569;50.548;8.778;2022-09-30T04:01:28;23;;;7.8;;
51491;SDS011;37569;50.548;8.778;2022-09-30T04:06:28;9.6;;;6.8;;
51491;SDS011;37569;50.548;8.778;2022-09-30T04:11:28;8.1;;;6.5;;
51491;SDS011;37569;50.548;8.778;2022-09-30T04:16:28;12;;;6.2;;
51491;SDS011;37569;50.548;8.778;2022-09-30T04:21:28;10.7;;;5.9;;
51491;SDS011;37569;50.548;8.778;2022-09-30T04:26:28;11.5;;;6.3;;
51491;SDS011;37569;50.548;8.778;2022-09-30T04:31:28;8.8;;;5.7;;
51491;SDS011;37569;50.548;8.778;2022-09-30T04:36:29;15.2;;;6.4;;
51491;SDS011;37569;50.548;8.778;2022-09-30T04:41:29;8.5;;;5.7;;
51491;SDS011;37569;50.548;8.778;2022-09-30T04:46:29;17.8;;;6.6;;
51491;SDS011;37569;50.548;8.778;2022-09-30T04:51:29;25.7;;;7;;
51491;SDS011;37569;50.548;8.778;2022-09-30T04:56:29;49.3;;;7.9;;
51491;SDS011;37569;50.548;8.778;2022-09-30T05:01:29;30;;;9.1;;
51491;SDS011;37569;50.548;8.778;2022-09-30T05:06:29;29.6;;;10.5;;
51491;SDS011;37569;50.548;8.778;2022-09-30T05:11:29;28.6;;;9.5;;
51491;SDS011;37569;50.548;8.778;2022-09-30T05:16:30;22.8;;;8.3;;
51491;SDS011;37569;50.548;8.778;2022-09-30T05:21:30;22.5;;;9.6;;
51491;SDS011;37569;50.548;8.778;2022-09-30T05:26:30;17.4;;;9.4;;
51491;SDS011;37569;50.548;8.778;2022-09-30T05:31:30;21.3;;;9.9;;
51491;SDS011;37569;50.548;8.778;2022-09-30T05:36:30;20.5;;;8.3;;
51491;SDS011;37569;50.548;8.778;2022-09-30T05:41:30;38.2;;;8.6;;
51491;SDS011;37569;50.548;8.778;2022-09-30T05:46:30;33.6;;;8.9;;
51491;SDS011;37569;50.548;8.778;2022-09-30T05:51:30;51.9;;;10.5;;
51491;SDS011;37569;50.548;8.778;2022-09-30T05:56:31;27.9;;;8.6;;
51491;SDS011;37569;50.548;8.778;2022-09-30T06:01:31;20.4;;;7.4;;
51491;SDS011;37569;50.548;8.778;2022-09-30T06:06:31;46.6;;;8.5;;
51491;SDS011;37569;50.548;8.778;2022-09-30T06:11:31;31.1;;;7.7;;
51491;SDS011;37569;50.548;8.778;2022-09-30T06:16:31;39.1;;;8.9;;
51491;SDS011;37569;50.548;8.778;2022-09-30T06:21:31;20.6;;;7.7;;
51491;SDS011;37569;50.548;8.778;2022-09-30T06:26:32;54.2;;;8.7;;
51491;SDS011;37569;50.548;8.778;2022-09-30T06:31:32;44.4;;;8.7;;
51491;SDS011;37569;50.548;8.778;2022-09-30T06:36:32;41.1;;;7.8;;
51491;SDS011;37569;50.548;8.778;2022-09-30T06:41:32;24.3;;;7.1;;
51491;SDS011;37569;50.548;8.778;2022-09-30T06:46:32;21;;;6.2;;
51491;SDS011;37569;50.548;8.778;2022-09-30T06:51:32;25.4;;;6.1;;
51491;SDS011;37569;50.548;8.778;2022-09-30T06:56:33;20.2;;;5.5;;
51491;SDS011;37569;50.548;8.778;2022-09-30T07:01:33;8.8;;;5.4;;
51491;SDS011;37569;50.548;8.778;2022-09-30T07:06:33;17.6;;;6.5;;
51491;SDS011;37569;50.548;8.778;2022-09-30T07:11:33;18.2;;;6.6;;
51491;SDS011;37569;50.548;8.778;2022-09-30T07:16:34;8.5;;;6.3;;
51491;SDS011;37569;50.548;8.778;2022-09-30T07:21:34;13.8;;;6.5;;
51491;SDS011;37569;50.548;8.778;2022-09-30T07:26:34;18.6;;;7.3;;
51491;SDS011;37569;50.548;8.778;2022-09-30T07:31:34;16.1;;;6.7;;
51491;SDS011;37569;50.548;8.778;2022-09-30T07:36:35;36.4;;;6.3;;
51491;SDS011;37569;50.548;8.778;2022-09-30T07:41:36;10.3;;;6.4;;
51491;SDS011;37569;50.548;8.778;2022-09-30T07:46:35;15.2;;;6.2;;
51491;SDS011;37569;50.548;8.778;2022-09-30T07:51:36;20.9;;;5.6;;
51491;SDS011;37569;50.548;8.778;2022-09-30T07:56:36;12.8;;;5.5;;
51491;SDS011;37569;50.548;8.778;2022-09-30T08:01:36;16.5;;;6.5;;
51491;SDS011;37569;50.548;8.778;2022-09-30T08:06:37;12.4;;;6.2;;
51491;SDS011;37569;50.548;8.778;2022-09-30T08:11:37;13;;;6.1;;
51491;SDS011;37569;50.548;8.778;2022-09-30T08:16:37;13.7;;;6;;
51491;SDS011;37569;50.548;8.778;2022-09-30T08:21:37;11.2;;;5.8;;
51491;SDS011;37569;50.548;8.778;2022-09-30T08:26:38;10.7;;;6.1;;
51491;SDS011;37569;50.548;8.778;2022-09-30T08:31:38;7.3;;;6.5;;
51491;SDS011;37569;50.548;8.778;2022-09-30T08:36:39;10.7;;;6.6;;
51491;SDS011;37569;50.548;8.778;2022-09-30T08:41:44;8.1;;;7;;
51491;SDS011;37569;50.548;8.778;2022-09-30T08:46:41;10;;;7.5;;
51491;SDS011;37569;50.548;8.778;2022-09-30T08:51:41;9.8;;;7.5;;
51491;SDS011;37569;50.548;8.778;2022-09-30T08:56:40;8.5;;;7.5;;
51491;SDS011;37569;50.548;8.778;2022-09-30T09:01:41;8.7;;;7.7;;
51491;SDS011;37569;50.548;8.778;2022-09-30T09:06:44;8.3;;;7.1;;
51491;SDS011;37569;50.548;8.778;2022-09-30T09:11:45;9.4;;;8.2;;
51491;SDS011;37569;50.548;8.778;2022-09-30T09:16:44;9.3;;;8.1;;
51491;SDS011;37569;50.548;8.778;2022-09-30T09:21:47;10.5;;;7.9;;
51491;SDS011;37569;50.548;8.778;2022-09-30T09:26:43;8.8;;;7.5;;
51491;SDS011;37569;50.548;8.778;2022-09-30T09:31:43;11.1;;;8;;
51491;SDS011;37569;50.548;8.778;2022-09-30T09:36:48;9.4;;;7.8;;
51491;SDS011;37569;50.548;8.778;2022-09-30T09:41:47;10.6;;;8.6;;
51491;SDS011;37569;50.548;8.778;2022-09-30T09:46:45;11.6;;;8.8;;
51491;SDS011;37569;50.548;8.778;2022-09-30T09:51:46;12.7;;;9.4;;
51491;SDS011;37569;50.548;8.778;2022-09-30T09:56:46;10;;;9;;
51491;SDS011;37569;50.548;8.778;2022-09-30T10:01:47;10.7;;;8.9;;
51491;SDS011;37569;50.548;8.778;2022-09-30T10:06:49;10.1;;;8.4;;
51491;SDS011;37569;50.548;8.778;2022-09-30T10:11:48;10.4;;;9.2;;
51491;SDS011;37569;50.548;8.778;2022-09-30T10:16:48;9.8;;;8.5;;
51491;SDS011;37569;50.548;8.778;2022-09-30T10:21:49;11.3;;;9.5;;
51491;SDS011;37569;50.548;8.778;2022-09-30T10:26:49;10.1;;;8;;
51491;SDS011;37569;50.548;8.778;2022-09-30T10:31:50;10.2;;;7.5;;
51491;SDS011;37569;50.548;8.778;2022-09-30T10:36:50;11.5;;;8.6;;
51491;SDS011;37569;50.548;8.778;2022-09-30T10:41:58;9.1;;;7.8;;
51491;SDS011;37569;50.548;8.778;2022-09-30T10:46:52;8.6;;;7.7;;
51491;SDS011;37569;50.548;8.778;2022-09-30T10:51:52;9.4;;;6.8;;
51491;SDS011;37569;50.548;8.778;2022-09-30T10:56:53;9;;;6.7;;
51491;SDS011;37569;50.548;8.778;2022-09-30T11:01:55;8.1;;;6.8;;
51491;SDS011;37569;50.548;8.778;2022-09-30T11:06:57;9.7;;;6.9;;
51491;SDS011;37569;50.548;8.778;2022-09-30T11:11:56;7.9;;;6.3;;
51491;SDS011;37569;50.548;8.778;2022-09-30T11:16:59;8.9;;;6.3;;
51491;SDS011;37569;50.548;8.778;2022-09-30T11:21:57;9.8;;;5.9;;
51491;SDS011;37569;50.548;8.778;2022-09-30T11:26:58;8.2;;;6.7;;
51491;SDS011;37569;50.548;8.778;2022-09-30T11:31:59;8.9;;;6.5;;
51491;SDS011;37569;50.548;8.778;2022-09-30T11:36:59;8;;;6.2;;
51491;SDS011;37569;50.548;8.778;2022-09-30T11:42:00;7.8;;;5.1;;
51491;SDS011;37569;50.548;8.778;2022-09-30T11:47:01;6.8;;;4.9;;
51491;SDS011;37569;50.548;8.778;2022-09-30T11:52:02;6.9;;;4.7;;
51491;SDS011;37569;50.548;8.778;2022-09-30T11:57:02;5.4;;;3.8;;
51491;SDS011;37569;50.548;8.778;2022-09-30T12:02:02;5.4;;;4.7;;
51491;SDS011;37569;50.548;8.778;2022-09-30T12:07:03;5.9;;;4.1;;
51491;SDS011;37569;50.548;8.778;2022-09-30T12:12:04;5.7;;;4.9;;
51491;SDS011;37569;50.548;8.778;2022-09-30T12:17:04;7.5;;;5.3;;
51491;SDS011;37569;50.548;8.778;2022-09-30T12:22:05;6.3;;;5.2;;
51491;SDS011;37569;50.548;8.778;2022-09-30T12:27:09;7.4;;;4.7;;
51491;SDS011;37569;50.548;8.778;2022-09-30T12:32:11;7.3;;;4.6;;
51491;SDS011;37569;50.548;8.778;2022-09-30T12:37:12;7.1;;;4.7;;
51491;SDS011;37569;50.548;8.778;2022-09-30T12:42:11;4.9;;;4.3;;
51491;SDS011;37569;50.548;8.778;2022-09-30T12:47:12;5.9;;;4.2;;
51491;SDS011;37569;50.548;8.778;2022-09-30T12:52:10;5;;;4.5;;
51491;SDS011;37569;50.548;8.778;2022-09-30T12:57:08;5;;;4;;
51491;SDS011;37569;50.548;8.778;2022-09-30T13:02:20;5.9;;;4.1;;
51491;SDS011;37569;50.548;8.778;2022-09-30T13:07:11;5.9;;;3.8;;
51491;SDS011;37569;50.548;8.778;2022-09-30T13:12:15;8.6;;;4.2;;
51491;SDS011;37569;50.548;8.778;2022-09-30T13:17:21;5.3;;;4;;
51491;SDS011;37569;50.548;8.778;2022-09-30T13:22:43;4.8;;;3.9;;
51491;SDS011;37569;50.548;8.778;2022-09-30T13:27:12;6.1;;;3.6;;
51491;SDS011;37569;50.548;8.778;2022-09-30T13:32:28;5.2;;;3.9;;
51491;SDS011;37569;50.548;8.778;2022-09-30T13:37:31;5;;;3.8;;
51491;SDS011;37569;50.548;8.778;2022-09-30T13:42:16;7.9;;;3.9;;
51491;SDS011;37569;50.548;8.778;2022-09-30T13:47:17;6.1;;;4.1;;
51491;SDS011;37569;50.548;8.778;2022-09-30T13:52:17;6.5;;;3.8;;
51491;SDS011;37569;50.548;8.778;2022-09-30T13:57:17;4;;;3.5;;
51491;SDS011;37569;50.548;8.778;2022-09-30T14:02:21;4.5;;;3.5;;
51491;SDS011;37569;50.548;8.778;2022-09-30T14:07:22;5.2;;;3.7;;
51491;SDS011;37569;50.548;8.778;2022-09-30T14:12:29;5.5;;;3.1;;
51491;SDS011;37569;50.548;8.778;2022-09-30T14:17:24;5.2;;;3.3;;
51491;SDS011;37569;50.548;8.778;2022-09-30T14:22:19;5.4;;;3.3;;
51491;SDS011;37569;50.548;8.778;2022-09-30T14:27:22;4.1;;;2.8;;
51491;SDS011;37569;50.548;8.778;2022-09-30T14:32:24;4.6;;;2.9;;
51491;SDS011;37569;50.548;8.778;2022-09-30T14:37:22;4.3;;;3;;
51491;SDS011;37569;50.548;8.778;2022-09-30T14:42:24;5.4;;;3.1;;
51491;SDS011;37569;50.548;8.778;2022-09-30T14:47:23;5.7;;;3;;
51491;SDS011;37569;50.548;8.778;2022-09-30T14:52:32;7.8;;;3;;
51491;SDS011;37569;50.548;8.778;2022-09-30T14:57:24;5.7;;;2.8;;
51491;SDS011;37569;50.548;8.778;2022-09-30T15:02:25;4.2;;;3;;
51491;SDS011;37569;50.548;8.778;2022-09-30T15:07:25;4.1;;;2.8;;
51491;SDS011;37569;50.548;8.778;2022-09-30T15:12:26;4.6;;;2.4;;
51491;SDS011;37569;50.548;8.778;2022-09-30T15:17:27;2.7;;;2.4;;
51491;SDS011;37569;50.548;8.778;2022-09-30T15:22:27;3.8;;;2.4;;
51491;SDS011;37569;50.548;8.778;2022-09-30T15:27:28;4.7;;;2.3;;
51491;SDS011;37569;50.548;8.778;2022-09-30T15:32:29;2.8;;;2.2;;
51491;SDS011;37569;50.548;8.778;2022-09-30T15:37:29;2.2;;;1.8;;
51491;SDS011;37569;50.548;8.778;2022-09-30T15:42:31;3;;;1.9;;
51491;SDS011;37569;50.548;8.778;2022-09-30T15:47:30;3.2;;;1.8;;
51491;SDS011;37569;50.548;8.778;2022-09-30T15:52:35;3.2;;;1.9;;
51491;SDS011;37569;50.548;8.778;2022-09-30T15:57:37;4.1;;;2.1;;
51491;SDS011;37569;50.548;8.778;2022-09-30T16:02:32;4.1;;;1.7;;
51491;SDS011;37569;50.548;8.778;2022-09-30T16:07:33;3.7;;;1.7;;
51491;SDS011;37569;50.548;8.778;2022-09-30T16:12:33;4.8;;;1.9;;
51491;SDS011;37569;50.548;8.778;2022-09-30T16:17:34;2;;;1.5;;
51491;SDS011;37569;50.548;8.778;2022-09-30T16:22:46;2.5;;;1.6;;
51491;SDS011;37569;50.548;8.778;2022-09-30T16:27:36;4.7;;;1.8;;
51491;SDS011;37569;50.548;8.778;2022-09-30T16:32:37;4.2;;;1.9;;
51491;SDS011;37569;50.548;8.778;2022-09-30T16:37:36;3.4;;;1.7;;
51491;SDS011;37569;50.548;8.778;2022-09-30T16:42:37;3;;;1.9;;
51491;SDS011;37569;50.548;8.778;2022-09-30T16:47:37;2.3;;;1.8;;
51491;SDS011;37569;50.548;8.778;2022-09-30T16:52:38;2.1;;;1.7;;
51491;SDS011;37569;50.548;8.778;2022-09-30T16:57:38;2.8;;;1.8;;
51491;SDS011;37569;50.548;8.778;2022-09-30T17:02:39;2.7;;;1.8;;
51491;SDS011;37569;50.548;8.778;2022-09-30T17:07:41;4.5;;;2.5;;
51491;SDS011;37569;50.548;8.778;2022-09-30T17:12:40;3.7;;;2;;
51491;SDS011;37569;50.548;8.778;2022-09-30T17:17:41;3.2;;;2.3;;
51491;SDS011;37569;50.548;8.778;2022-09-30T17:22:41;3.4;;;2.3;;
51491;SDS011;37569;50.548;8.778;2022-09-30T17:27:42;3.8;;;2.2;;
51491;SDS011;37569;50.548;8.778;2022-09-30T17:32:42;5.7;;;2.3;;
51491;SDS011;37569;50.548;8.778;2022-09-30T17:37:43;4.9;;;2.4;;
51491;SDS011;37569;50.548;8.778;2022-09-30T17:42:43;4.5;;;2.3;;
51491;SDS011;37569;50.548;8.778;2022-09-30T17:47:44;3.1;;;2.3;;
51491;SDS011;37569;50.548;8.778;2022-09-30T17:52:44;4.9;;;2.5;;
51491;SDS011;37569;50.548;8.778;2022-09-30T17:57:45;3.6;;;2.5;;
51491;SDS011;37569;50.548;8.778;2022-09-30T18:02:45;3.9;;;2.5;;
51491;SDS011;37569;50.548;8.778;2022-09-30T18:07:45;4.1;;;2.6;;
51491;SDS011;37569;50.548;8.778;2022-09-30T18:12:46;4.7;;;2.7;;
51491;SDS011;37569;50.548;8.778;2022-09-30T18:17:46;4.2;;;2.9;;
51491;SDS011;37569;50.548;8.778;2022-09-30T18:22:47;5.8;;;3.1;;
51491;SDS011;37569;50.548;8.778;2022-09-30T18:27:48;4.2;;;3;;
51491;SDS011;37569;50.548;8.778;2022-09-30T18:32:48;6.2;;;3.5;;
51491;SDS011;37569;50.548;8.778;2022-09-30T18:37:49;4.6;;;3.4;;
51491;SDS011;37569;50.548;8.778;2022-09-30T18:42:51;7.3;;;4.1;;
51491;SDS011;37569;50.548;8.778;2022-09-30T18:47:52;4.8;;;3.5;;
51491;SDS011;37569;50.548;8.778;2022-09-30T18:52:50;3.9;;;3.5;;
51491;SDS011;37569;50.548;8.778;2022-09-30T18:57:52;5.2;;;3;;
51491;SDS011;37569;50.548;8.778;2022-09-30T19:02:51;4.3;;;3.1;;
51491;SDS011;37569;50.548;8.778;2022-09-30T19:07:51;4.4;;;3.4;;
51491;SDS011;37569;50.548;8.778;2022-09-30T19:12:52;4.3;;;3.2;;
51491;SDS011;37569;50.548;8.778;2022-09-30T19:17:52;5.8;;;3.4;;
51491;SDS011;37569;50.548;8.778;2022-09-30T19:22:52;5.4;;;3.4;;
51491;SDS011;37569;50.548;8.778;2022-09-30T19:27:53;3.9;;;3.4;;
51491;SDS011;37569;50.548;8.778;2022-09-30T19:32:54;6.1;;;3.2;;
51491;SDS011;37569;50.548;8.778;2022-09-30T19:37:54;5.3;;;3.8;;
51491;SDS011;37569;50.548;8.778;2022-09-30T19:42:54;5.3;;;3.3;;
51491;SDS011;37569;50.548;8.778;2022-09-30T19:47:54;4.8;;;3.6;;
51491;SDS011;37569;50.548;8.778;2022-09-30T19:52:55;4.5;;;3.6;;
51491;SDS011;37569;50.548;8.778;2022-09-30T19:57:55;5.5;;;4.2;;
51491;SDS011;37569;50.548;8.778;2022-09-30T20:02:56;4.9;;;3.9;;
51491;SDS011;37569;50.548;8.778;2022-09-30T20:07:56;6;;;4.3;;
51491;SDS011;37569;50.548;8.778;2022-09-30T20:12:57;7.1;;;4.2;;
51491;SDS011;37569;50.548;8.778;2022-09-30T20:17:57;5.1;;;4.3;;
51491;SDS011;37569;50.548;8.778;2022-09-30T20:22:58;5.3;;;4.2;;
51491;SDS011;37569;50.548;8.778;2022-09-30T20:27:58;5.8;;;4.4;;
51491;SDS011;37569;50.548;8.778;2022-09-30T20:32:58;9.9;;;4.8;;
51491;SDS011;37569;50.548;8.778;2022-09-30T20:37:59;7.4;;;5.2;;
51491;SDS011;37569;50.548;8.778;2022-09-30T20:42:59;7.1;;;4.7;;
51491;SDS011;37569;50.548;8.778;2022-09-30T20:47:59;6.3;;;4.7;;
51491;SDS011;37569;50.548;8.778;2022-09-30T20:53:01;7.6;;;4.8;;
51491;SDS011;37569;50.548;8.778;2022-09-30T20:58:00;7;;;5.6;;
51491;SDS011;37569;50.548;8.778;2022-09-30T21:03:01;6.5;;;5;;
51491;SDS011;37569;50.548;8.778;2022-09-30T21:08:01;7.4;;;5;;
51491;SDS011;37569;50.548;8.778;2022-09-30T21:13:05;6.1;;;4.6;;
51491;SDS011;37569;50.548;8.778;2022-09-30T21:18:02;5.7;;;4.7;;
51491;SDS011;37569;50.548;8.778;2022-09-30T21:23:02;5.3;;;4.6;;
51491;SDS011;37569;50.548;8.778;2022-09-30T21:28:03;8.4;;;5.2;;
51491;SDS011;37569;50.548;8.778;2022-09-30T21:33:03;8.1;;;5.3;;
51491;SDS011;37569;50.548;8.778;2022-09-30T21:38:03;6.4;;;5.3;;
51491;SDS011;37569;50.548;8.778;2022-09-30T21:43:04;8.4;;;5.3;;
51491;SDS011;37569;50.548;8.778;2022-09-30T21:48:05;7.6;;;5.6;;
51491;SDS011;37569;50.548;8.778;2022-09-30T21:53:04;7.6;;;5.4;;
51491;SDS011;37569;50.548;8.778;2022-09-30T21:58:05;9.2;;;5.4;;
51491;SDS011;37569;50.548;8.778;2022-09-30T22:03:05;7.5;;;5.5;;
51491;SDS011;37569;50.548;8.778;2022-09-30T22:08:05;7.6;;;5.7;;
51491;SDS011;37569;50.548;8.778;2022-09-30T22:13:06;7.3;;;5.7;;
51491;SDS011;37569;50.548;8.778;2022-09-30T22:18:06;7;;;5.9;;
51491;SDS011;37569;50.548;8.778;2022-09-30T22:23:06;8.1;;;5.8;;
51491;SDS011;37569;50.548;8.778;2022-09-30T22:28:07;8.3;;;5.9;;
51491;SDS011;37569;50.548;8.778;2022-09-30T22:33:07;6.3;;;5.6;;
51491;SDS011;37569;50.548;8.778;2022-09-30T22:38:08;9.6;;;6.7;;
51491;SDS011;37569;50.548;8.778;2022-09-30T22:43:08;10.6;;;7.6;;
51491;SDS011;37569;50.548;8.778;2022-09-30T22:48:08;8.9;;;8;;
51491;SDS011;37569;50.548;8.778;2022-09-30T22:53:08;11.4;;;8.8;;
51491;SDS011;37569;50.548;8.778;2022-09-30T22:58:09;10.7;;;8.5;;
51491;SDS011;37569;50.548;8.778;2022-09-30T23:03:09;10.1;;;8.5;;
51491;SDS011;37569;50.548;8.778;2022-09-30T23:08:09;12.2;;;9.6;;
51491;SDS011;37569;50.548;8.778;2022-09-30T23:13:10;11.7;;;9.1;;
51491;SDS011;37569;50.548;8.778;2022-09-30T23:18:10;10.8;;;8.9;;
51491;SDS011;37569;50.548;8.778;2022-09-30T23:23:11;11.6;;;9.4;;
51491;SDS011;37569;50.548;8.778;2022-09-30T23:28:11;14;;;9.8;;
51491;SDS011;37569;50.548;8.778;2022-09-30T23:33:11;12.8;;;9.7;;
51491;SDS011;37569;50.548;8.778;2022-09-30T23:38:12;12.1;;;9.8;;
51491;SDS011;37569;50.548;8.778;2022-09-30T23:43:12;11.7;;;9.9;;
51491;SDS011;37569;50.548;8.778;2022-09-30T23:48:12;13.4;;;10.6;;
51491;SDS011;37569;50.548;8.778;2022-09-30T23:53:13;13.5;;;9.8;;
51491;SDS011;37569;50.548;8.778;2022-09-30T23:58:13;13.3;;;10.1;;
